Time;durP1;ratioP1;P1;durP2;ratioP2;P2;SDS_P1;SDS_P2;PMS_P1;PMS_P2;Temp;Humidity;BMP_temperature;BMP_pressure;BME280_temperature;BME280_humidity;BME280_pressure;Samples;Min_cycle;Max_cycle;Signal;HPM_P1;HPM_P2
2021/09/23 00:00:56;;;;;;;5.92;5.33;;;;;;;8.84;93.87;99587.88;1698940;83;20970;-71
2021/09/23 00:06:03;;;;;;;7.17;5.65;;;;;;;8.91;93.52;99586.69;1727697;82;21003;-75
2021/09/23 00:08:30;;;;;;;5.15;4.65;;;;;;;8.87;93.25;99584.73;1726593;82;20961;-72
2021/09/23 00:10:57;;;;;;;6.00;4.60;;;;;;;8.80;93.11;99578.70;1726767;82;20920;-72
2021/09/23 00:13:25;;;;;;;6.58;4.25;;;;;;;8.71;93.30;99585.80;1707610;82;20963;-74
2021/09/23 00:15:53;;;;;;;7.40;4.42;;;;;;;8.70;93.50;99584.69;1722688;83;21056;-74
2021/09/23 00:18:20;;;;;;;4.65;4.12;;;;;;;8.72;93.63;99590.11;1727515;82;21011;-73
2021/09/23 00:20:49;;;;;;;4.08;3.55;;;;;;;8.78;93.64;99586.97;1725139;82;20988;-73
2021/09/23 00:23:16;;;;;;;6.80;4.67;;;;;;;8.73;93.43;99586.34;1695180;83;21003;-73
2021/09/23 00:25:44;;;;;;;4.87;4.37;;;;;;;8.68;93.37;99584.13;1722414;83;20980;-72
2021/09/23 00:28:11;;;;;;;8.28;4.10;;;;;;;8.65;93.50;99581.91;1726281;82;21091;-73
2021/09/23 00:30:40;;;;;;;3.87;3.52;;;;;;;8.62;93.66;99587.77;1726596;82;20948;-73
2021/09/23 00:33:07;;;;;;;4.10;3.70;;;;;;;8.62;93.79;99586.42;1725571;82;21129;-74
2021/09/23 00:35:34;;;;;;;3.95;3.58;;;;;;;8.59;93.84;99578.31;1726319;82;20985;-75
2021/09/23 00:38:01;;;;;;;3.95;3.55;;;;;;;8.60;93.96;99585.83;1726489;82;20992;-78
2021/09/23 00:40:29;;;;;;;5.30;3.90;;;;;;;8.56;94.05;99578.80;1726660;82;21027;-77
2021/09/23 00:42:55;;;;;;;4.60;3.85;;;;;;;8.56;94.39;99579.33;1721439;82;21028;-83
2021/09/23 00:45:22;;;;;;;4.05;3.70;;;;;;;8.59;94.59;99585.02;1726458;82;21118;-80
2021/09/23 00:47:50;;;;;;;6.03;4.10;;;;;;;8.62;94.73;99581.87;1726527;82;21514;-81
2021/09/23 00:50:20;;;;;;;5.03;4.53;;;;;;;8.63;94.66;99575.98;1715486;83;20997;-79
2021/09/23 00:52:48;;;;;;;3.65;3.35;;;;;;;8.66;94.81;99579.52;1726915;82;21004;-80
2021/09/23 00:55:18;;;;;;;3.42;3.12;;;;;;;8.67;94.70;99578.47;1727141;83;20960;-81
2021/09/23 00:57:45;;;;;;;10.98;5.20;;;;;;;8.66;94.67;99579.52;1728120;83;21161;-80
2021/09/23 01:00:15;;;;;;;5.85;3.42;;;;;;;8.66;94.78;99583.55;1691973;83;21031;-82
2021/09/23 01:03:00;;;;;;;4.20;3.87;;;;;;;8.65;94.75;99578.70;1716052;83;20969;-80
2021/09/23 01:05:29;;;;;;;3.98;3.50;;;;;;;8.63;94.83;99577.33;1717335;82;21049;-79
2021/09/23 01:07:56;;;;;;;3.87;3.58;;;;;;;8.66;94.96;99579.00;1723657;83;21103;-78
2021/09/23 01:10:22;;;;;;;6.72;3.90;;;;;;;8.69;95.03;99575.01;1727568;83;21032;-75
2021/09/23 01:12:50;;;;;;;4.85;4.45;;;;;;;8.67;94.93;99575.79;1726382;83;21465;-78
2021/09/23 01:15:18;;;;;;;3.55;3.25;;;;;;;8.63;94.72;99577.33;1726416;83;21032;-81
2021/09/23 01:17:46;;;;;;;6.40;4.47;;;;;;;8.57;94.68;99582.30;1715154;83;21490;-78
2021/09/23 01:20:14;;;;;;;5.33;4.83;;;;;;;8.51;94.81;99579.23;1728058;82;21012;-77
2021/09/23 01:22:42;;;;;;;5.95;4.33;;;;;;;8.50;95.03;99580.27;1719395;82;21544;-78
2021/09/23 01:25:19;;;;;;;8.65;4.95;;;;;;;8.47;95.08;99575.41;1705762;83;21573;-80
2021/09/23 01:27:46;;;;;;;7.00;4.58;;;;;;;8.47;95.32;99575.41;1703158;83;21600;-84
2021/09/23 01:30:16;;;;;;;6.65;4.92;;;;;;;8.47;95.38;99584.78;1698876;83;21071;-79
2021/09/23 01:32:46;;;;;;;6.20;5.45;;;;;;;8.42;95.51;99575.30;1708692;83;21044;-84
2021/09/23 01:35:14;;;;;;;7.05;5.85;;;;;;;8.39;95.65;99577.13;1716225;83;21350;-85
2021/09/23 01:37:41;;;;;;;7.83;4.85;;;;;;;8.33;95.85;99584.25;1726346;82;21011;-82
2021/09/23 01:40:10;;;;;;;6.87;4.90;;;;;;;8.30;96.12;99582.02;1723608;83;21004;-79
2021/09/23 01:42:42;;;;;;;5.22;4.33;;;;;;;8.26;96.33;99578.16;1711345;83;21007;-80
2021/09/23 01:45:11;;;;;;;6.25;5.58;;;;;;;8.22;96.58;99581.03;1728068;82;20997;-80
2021/09/23 01:47:43;;;;;;;5.17;4.67;;;;;;;8.19;96.91;99581.00;1727140;82;21057;-75
2021/09/23 01:50:10;;;;;;;5.22;4.65;;;;;;;8.18;97.10;99578.02;1725952;82;21256;-77
2021/09/23 01:52:39;;;;;;;5.55;4.15;;;;;;;8.15;97.13;99579.03;1720437;82;21611;-81
2021/09/23 01:55:11;;;;;;;4.12;3.77;;;;;;;8.13;97.28;99575.23;1709437;83;21031;-78
2021/09/23 01:57:39;;;;;;;6.15;5.30;;;;;;;8.12;97.37;99575.47;1725556;82;21002;-80
2021/09/23 02:00:07;;;;;;;7.20;6.17;;;;;;;8.11;97.51;99575.98;1724345;82;21059;-80
2021/09/23 02:02:35;;;;;;;7.80;5.15;;;;;;;8.12;97.61;99568.77;1724065;82;21046;-80
2021/09/23 02:05:04;;;;;;;7.97;4.85;;;;;;;8.12;97.69;99576.81;1717716;82;20940;-80
2021/09/23 02:07:31;;;;;;;5.75;5.17;;;;;;;8.12;97.74;99578.14;1727616;82;20992;-81
2021/09/23 02:10:01;;;;;;;5.53;4.95;;;;;;;8.11;97.74;99575.98;1728086;82;20995;-80
2021/09/23 02:12:28;;;;;;;4.75;4.25;;;;;;;8.11;97.86;99584.02;1707654;83;21079;-79
2021/09/23 02:14:56;;;;;;;7.80;4.65;;;;;;;8.11;97.88;99579.19;1705938;83;21536;-80
2021/09/23 02:17:24;;;;;;;6.70;5.15;;;;;;;8.11;97.82;99582.69;1729051;82;21083;-80
2021/09/23 02:19:54;;;;;;;4.95;4.47;;;;;;;8.12;97.78;99580.83;1728398;82;20968;-81
2021/09/23 02:22:24;;;;;;;5.72;4.20;;;;;;;8.15;97.89;99585.73;1714673;82;21034;-79
2021/09/23 02:24:53;;;;;;;5.97;5.28;;;;;;;8.17;97.79;99578.25;1688398;84;22072;-79
2021/09/23 02:27:21;;;;;;;6.58;4.75;;;;;;;8.15;97.68;99579.81;1701935;83;21024;-80
2021/09/23 02:29:48;;;;;;;6.12;5.47;;;;;;;8.15;97.72;99579.03;1704287;83;20988;-80
2021/09/23 02:32:16;;;;;;;5.85;4.50;;;;;;;8.14;97.83;99579.55;1725925;83;21026;-80
2021/09/23 02:34:44;;;;;;;5.45;4.80;;;;;;;8.14;97.74;99583.57;1717076;83;21055;-81
2021/09/23 02:37:13;;;;;;;4.97;4.42;;;;;;;8.13;97.68;99578.44;1727852;82;20944;-80
2021/09/23 02:39:40;;;;;;;10.30;4.87;;;;;;;8.09;97.52;99586.14;1717356;83;21060;-81
2021/09/23 02:42:07;;;;;;;7.45;4.90;;;;;;;8.05;97.49;99582.83;1718968;82;20982;-80
2021/09/23 02:44:35;;;;;;;6.45;5.65;;;;;;;8.00;97.68;99572.83;1717427;83;20988;-78
2021/09/23 02:47:02;;;;;;;6.70;5.10;;;;;;;7.99;97.86;99566.36;1728017;82;21498;-80
2021/09/23 02:49:30;;;;;;;5.42;4.65;;;;;;;7.99;97.97;99569.86;1693431;83;21066;-80
2021/09/23 02:51:58;;;;;;;7.50;4.92;;;;;;;8.01;97.99;99576.33;1720680;82;21579;-80
2021/09/23 02:54:26;;;;;;;7.58;5.78;;;;;;;8.00;97.97;99575.51;1698929;83;20950;-81
2021/09/23 02:56:54;;;;;;;6.05;5.42;;;;;;;8.00;98.00;99568.81;1699008;83;21546;-79
2021/09/23 02:59:20;;;;;;;7.33;5.05;;;;;;;8.02;98.06;99566.70;1692645;83;21026;-79
2021/09/23 03:01:48;;;;;;;5.10;4.60;;;;;;;8.04;97.98;99567.81;1696812;83;22062;-78
2021/09/23 03:04:15;;;;;;;7.33;5.47;;;;;;;8.04;97.89;99567.28;1719430;82;20977;-81
2021/09/23 03:06:41;;;;;;;5.62;5.12;;;;;;;8.03;97.78;99570.19;1731485;82;20940;-79
2021/09/23 03:09:11;;;;;;;7.05;4.92;;;;;;;8.04;97.92;99567.81;1731146;82;21020;-78
2021/09/23 03:11:42;;;;;;;6.03;5.17;;;;;;;8.06;97.85;99569.19;1719414;82;21582;-78
2021/09/23 03:14:10;;;;;;;8.25;5.08;;;;;;;8.09;97.98;99566.05;1697810;83;20988;-80
2021/09/23 03:16:39;;;;;;;5.45;4.87;;;;;;;8.15;97.98;99567.77;1718657;82;20988;-79
2021/09/23 03:19:05;;;;;;;7.85;6.20;;;;;;;8.16;97.78;99569.40;1706495;83;21080;-81
2021/09/23 03:21:31;;;;;;;7.50;5.50;;;;;;;8.17;97.55;99569.69;1673658;85;21145;-81
2021/09/23 03:23:59;;;;;;;5.53;5.03;;;;;;;8.17;97.38;99569.69;1669031;85;20929;-79
2021/09/23 03:26:26;;;;;;;6.28;5.10;;;;;;;8.21;97.43;99572.70;1682378;84;21283;-81
2021/09/23 03:28:54;;;;;;;8.23;6.05;;;;;;;8.22;97.22;99581.86;1682584;84;21004;-80
2021/09/23 03:31:22;;;;;;;8.83;5.83;;;;;;;8.23;97.12;99582.67;1679366;84;21055;-81
2021/09/23 03:33:51;;;;;;;9.35;5.87;;;;;;;8.25;97.01;99577.88;1656524;85;21600;-81
2021/09/23 03:36:19;;;;;;;7.20;5.58;;;;;;;8.27;97.05;99577.13;1656553;85;21052;-82
2021/09/23 03:38:47;;;;;;;7.30;6.20;;;;;;;8.30;96.90;99572.64;1656380;86;21123;-84
2021/09/23 03:41:14;;;;;;;6.87;6.17;;;;;;;8.32;96.76;99579.94;1677079;85;21577;-82
2021/09/23 03:43:41;;;;;;;6.10;5.60;;;;;;;8.30;96.51;99578.83;1659723;85;21007;-85
2021/09/23 03:46:08;;;;;;;7.12;5.97;;;;;;;8.28;96.32;99572.88;1647531;86;21091;-81
2021/09/23 03:48:36;;;;;;;7.90;6.75;;;;;;;8.25;96.21;99573.33;1656726;85;20960;-82
2021/09/23 03:51:04;;;;;;;6.40;5.78;;;;;;;8.22;96.14;99574.34;1657301;85;21105;-83
2021/09/23 03:53:31;;;;;;;7.28;6.58;;;;;;;8.18;96.11;99571.84;1657021;85;21080;-84
2021/09/23 03:55:57;;;;;;;8.05;7.08;;;;;;;8.18;96.14;99575.34;1656496;86;21564;-83
2021/09/23 03:58:25;;;;;;;9.30;5.95;;;;;;;8.21;96.28;99575.38;1656387;86;21117;-82
2021/09/23 04:00:52;;;;;;;7.58;6.22;;;;;;;8.24;96.41;99575.75;1667891;84;21047;-84
2021/09/23 04:03:18;;;;;;;5.90;5.40;;;;;;;8.28;96.34;99578.75;1690631;83;21072;-82
2021/09/23 04:05:45;;;;;;;7.50;6.55;;;;;;;8.31;96.22;99582.32;1716260;83;21457;-82
2021/09/23 04:08:12;;;;;;;6.17;5.50;;;;;;;8.29;96.05;99574.55;1717241;83;21052;-81
2021/09/23 04:10:41;;;;;;;6.22;5.62;;;;;;;8.26;95.81;99578.16;1726877;82;21015;-82
2021/09/23 04:13:07;;;;;;;7.20;6.10;;;;;;;8.24;95.86;99581.11;1702124;83;21521;-82
2021/09/23 04:15:34;;;;;;;7.10;6.10;;;;;;;8.24;95.82;99578.95;1727904;82;21153;-82
2021/09/23 04:18:02;;;;;;;7.03;6.33;;;;;;;8.22;95.89;99579.17;1727707;82;21115;-86
2021/09/23 04:20:29;;;;;;;8.15;5.53;;;;;;;8.24;95.94;99581.63;1717053;83;21035;-85
2021/09/23 04:22:57;;;;;;;7.90;7.10;;;;;;;8.26;96.02;99581.66;1701372;82;20993;-84
2021/09/23 04:25:25;;;;;;;6.80;6.10;;;;;;;8.27;95.92;99579.28;1707450;83;21304;-83
2021/09/23 04:27:55;;;;;;;8.75;6.50;;;;;;;8.31;95.78;99583.66;1727947;82;21446;-82
2021/09/23 04:30:23;;;;;;;6.60;5.80;;;;;;;8.30;95.64;99578.83;1727747;82;21027;-83
2021/09/23 04:32:50;;;;;;;9.55;6.72;;;;;;;8.31;95.60;99585.00;1716724;83;21022;-82
2021/09/23 04:35:18;;;;;;;8.18;6.45;;;;;;;8.32;95.58;99583.95;1714758;83;20993;-80
2021/09/23 04:37:44;;;;;;;7.87;6.45;;;;;;;8.35;95.57;99587.48;1717125;83;21095;-82
2021/09/23 04:40:12;;;;;;;7.33;6.55;;;;;;;8.36;95.58;99586.97;1727818;83;23322;-83
2021/09/23 04:42:43;;;;;;;7.22;6.05;;;;;;;8.41;95.67;99580.37;1693433;83;21016;-82
2021/09/23 04:45:10;;;;;;;6.10;5.50;;;;;;;8.43;95.56;99587.14;1724092;82;21521;-82
2021/09/23 04:47:40;;;;;;;8.15;6.85;;;;;;;8.44;95.53;99583.93;1716669;83;21052;-84
2021/09/23 04:50:08;;;;;;;8.53;6.95;;;;;;;8.48;95.62;99583.22;1716709;83;20973;-82
2021/09/23 04:52:35;;;;;;;10.00;6.90;;;;;;;8.52;95.44;99585.70;1726387;82;21008;-83
2021/09/23 04:55:04;;;;;;;8.10;7.30;;;;;;;8.52;95.28;99583.02;1715200;83;21094;-84
2021/09/23 04:57:35;;;;;;;7.60;6.75;;;;;;;8.55;95.22;99580.38;1728059;82;21052;-82
2021/09/23 05:00:08;;;;;;;8.58;6.40;;;;;;;8.60;95.27;99583.97;1724268;82;21501;-83
2021/09/23 05:02:36;;;;;;;11.73;7.37;;;;;;;8.57;94.70;99584.98;1679603;85;21075;-82
2021/09/23 05:05:05;;;;;;;6.42;5.75;;;;;;;8.52;94.80;99583.55;1662670;85;21118;-83
2021/09/23 05:07:33;;;;;;;8.00;6.25;;;;;;;8.55;94.86;99585.73;1613183;86;20985;-83
2021/09/23 05:10:02;;;;;;;12.43;8.43;;;;;;;8.53;94.71;99585.17;1666847;85;21514;-82
2021/09/23 05:12:30;;;;;;;7.55;6.20;;;;;;;8.52;94.73;99573.64;1682886;84;21551;-82
2021/09/23 05:14:59;;;;;;;7.05;6.35;;;;;;;8.52;94.76;99577.66;1657705;85;30824;-82
2021/09/23 05:17:25;;;;;;;7.58;6.87;;;;;;;8.48;94.57;99579.72;1663202;84;21406;-83
2021/09/23 05:19:53;;;;;;;10.48;6.95;;;;;;;8.44;94.58;99574.00;1656521;86;21041;-83
2021/09/23 05:22:24;;;;;;;13.38;6.92;;;;;;;8.51;95.00;99580.56;1656565;86;21542;-83
2021/09/23 05:24:51;;;;;;;7.80;6.75;;;;;;;8.54;94.78;99581.42;1664433;85;21060;-81
2021/09/23 05:27:17;;;;;;;7.70;7.00;;;;;;;8.63;94.84;99582.69;1685709;85;21104;-82
2021/09/23 05:29:45;;;;;;;12.05;6.97;;;;;;;8.68;94.52;99586.81;1685282;85;21516;-81
2021/09/23 05:32:13;;;;;;;8.60;6.95;;;;;;;8.65;94.00;99585.41;1682908;85;21000;-82
2021/09/23 05:34:40;;;;;;;7.85;6.92;;;;;;;8.60;93.80;99592.01;1660006;85;20945;-82
2021/09/23 05:37:09;;;;;;;12.23;7.50;;;;;;;8.59;93.88;99591.72;1684174;84;21174;-80
2021/09/23 05:39:38;;;;;;;8.35;7.47;;;;;;;8.64;94.04;99595.02;1658153;84;21559;-81
2021/09/23 05:42:06;;;;;;;10.18;7.72;;;;;;;8.67;93.91;99592.70;1656551;85;21043;-81
2021/09/23 05:44:33;;;;;;;8.95;6.58;;;;;;;8.72;93.86;99591.45;1645087;85;21064;-82
2021/09/23 05:47:02;;;;;;;8.03;6.85;;;;;;;8.76;93.74;99594.45;1658025;85;21583;-83
2021/09/23 05:49:29;;;;;;;7.85;6.92;;;;;;;8.79;93.51;99592.62;1658615;85;21106;-82
2021/09/23 05:51:56;;;;;;;8.95;8.15;;;;;;;8.78;93.14;99587.52;1656221;86;21072;-81
2021/09/23 05:54:23;;;;;;;7.97;7.05;;;;;;;8.77;93.06;99592.59;1656447;86;21060;-81
2021/09/23 05:56:52;;;;;;;10.72;7.80;;;;;;;8.78;93.05;99585.62;1657207;85;20933;-80
2021/09/23 05:59:21;;;;;;;7.72;6.40;;;;;;;8.81;93.05;99595.89;1675228;85;21104;-78
2021/09/23 06:01:47;;;;;;;11.38;7.40;;;;;;;8.85;92.94;99590.33;1671427;85;21096;-82
2021/09/23 06:04:16;;;;;;;8.48;7.62;;;;;;;8.90;92.85;99593.11;1674578;84;21047;-81
2021/09/23 06:06:42;;;;;;;7.70;6.80;;;;;;;8.95;92.70;99599.09;1675554;85;21541;-79
2021/09/23 06:09:09;;;;;;;7.95;6.08;;;;;;;8.96;92.37;99593.48;1667434;84;21600;-81
2021/09/23 06:11:39;;;;;;;13.60;7.58;;;;;;;8.94;92.08;99596.11;1685587;85;21068;-82
2021/09/23 06:14:06;;;;;;;11.28;6.90;;;;;;;8.82;91.85;99596.19;1684880;85;21078;-80
2021/09/23 06:16:35;;;;;;;7.53;6.83;;;;;;;8.77;91.99;99601.98;1663604;84;21003;-78
2021/09/23 06:19:02;;;;;;;7.85;7.05;;;;;;;8.75;92.20;99592.30;1682491;84;21552;-79
2021/09/23 06:21:30;;;;;;;7.53;6.62;;;;;;;8.80;92.43;99594.26;1670064;84;20951;-78
2021/09/23 06:23:57;;;;;;;7.58;6.67;;;;;;;8.87;92.40;99591.44;1672265;85;20999;-82
2021/09/23 06:26:25;;;;;;;8.53;7.20;;;;;;;8.86;92.14;99598.67;1685743;85;20916;-80
2021/09/23 06:28:52;;;;;;;6.55;5.87;;;;;;;8.88;92.26;99594.38;1676644;84;21502;-79
2021/09/23 06:31:20;;;;;;;7.97;7.17;;;;;;;8.88;92.14;99599.23;1656726;85;21045;-82
2021/09/23 06:33:48;;;;;;;8.60;5.72;;;;;;;8.84;92.10;99602.63;1675068;85;20918;-77
2021/09/23 06:36:15;;;;;;;7.67;6.42;;;;;;;8.81;91.88;99600.44;1658172;85;21080;-78
2021/09/23 06:38:41;;;;;;;7.72;6.80;;;;;;;8.79;92.00;99599.33;1657244;86;21038;-79
2021/09/23 06:41:12;;;;;;;6.33;5.72;;;;;;;8.82;92.23;99605.57;1658707;85;21055;-79
2021/09/23 06:43:42;;;;;;;6.22;5.03;;;;;;;8.89;92.36;99608.91;1656440;86;21493;-80
2021/09/23 06:46:13;;;;;;;6.90;6.28;;;;;;;8.93;91.95;99602.00;1656539;85;20957;-81
2021/09/23 06:48:40;;;;;;;5.80;5.30;;;;;;;8.95;91.74;99603.11;1669986;85;21006;-78
2021/09/23 06:51:07;;;;;;;5.83;5.22;;;;;;;8.94;91.67;99598.27;1672289;84;21542;-77
2021/09/23 06:53:33;;;;;;;5.60;4.37;;;;;;;8.93;91.38;99593.13;1678641;85;21012;-80
2021/09/23 06:55:59;;;;;;;5.97;5.35;;;;;;;8.93;91.37;99596.63;1657635;85;21195;-79
2021/09/23 06:58:29;;;;;;;5.60;4.70;;;;;;;8.92;91.39;99602.27;1696594;83;20968;-79
2021/09/23 07:01:13;;;;;;;7.40;5.20;;;;;;;8.94;91.51;99600.95;1707792;83;21655;-80
2021/09/23 07:03:43;;;;;;;4.62;4.17;;;;;;;8.98;91.14;99600.75;1718619;83;20996;-80
2021/09/23 07:06:13;;;;;;;5.55;5.05;;;;;;;9.02;91.13;99601.07;1649443;84;21120;-79
2021/09/23 07:08:40;;;;;;;4.85;4.45;;;;;;;9.06;91.12;99598.22;1703599;83;21013;-81
2021/09/23 07:11:09;;;;;;;4.12;3.83;;;;;;;9.07;91.05;99595.27;1726533;82;21004;-82
2021/09/23 07:13:36;;;;;;;4.55;3.52;;;;;;;9.07;90.67;99597.14;1691244;83;21510;-83
2021/09/23 07:16:05;;;;;;;4.30;3.90;;;;;;;9.03;90.14;99603.52;1711579;83;21022;-80
2021/09/23 07:18:31;;;;;;;4.53;3.92;;;;;;;9.00;89.98;99601.34;1702806;83;21101;-82
2021/09/23 07:20:58;;;;;;;4.45;3.85;;;;;;;9.03;90.18;99601.36;1711345;82;21290;-77
2021/09/23 07:23:25;;;;;;;4.33;3.80;;;;;;;9.08;90.24;99601.45;1709733;82;21498;-78
2021/09/23 07:25:53;;;;;;;5.05;4.65;;;;;;;9.08;89.74;99597.44;1692236;84;21086;-76
2021/09/23 07:28:22;;;;;;;10.08;4.45;;;;;;;9.08;89.93;99590.72;1710605;83;21544;-80
2021/09/23 07:30:48;;;;;;;4.60;4.20;;;;;;;9.09;89.92;99595.86;1697172;83;21064;-81
2021/09/23 07:33:14;;;;;;;4.37;3.85;;;;;;;9.07;89.50;99595.80;1695557;83;21205;-79
2021/09/23 07:35:41;;;;;;;3.77;3.42;;;;;;;9.04;89.51;99601.13;1707330;83;21049;-79
2021/09/23 07:38:08;;;;;;;3.90;2.90;;;;;;;9.01;89.34;99606.17;1708513;83;20969;-80
2021/09/23 07:40:35;;;;;;;4.58;3.77;;;;;;;8.96;89.10;99602.88;1703278;83;22049;-79
2021/09/23 07:43:04;;;;;;;4.72;2.83;;;;;;;8.97;89.14;99599.12;1705963;83;21031;-82
2021/09/23 07:45:30;;;;;;;3.35;3.05;;;;;;;8.96;89.15;99601.53;1715324;82;21170;-81
2021/09/23 07:47:58;;;;;;;3.98;3.67;;;;;;;8.91;88.85;99599.28;1705421;82;21617;-81
2021/09/23 07:50:25;;;;;;;3.72;3.42;;;;;;;8.88;88.98;99598.41;1713207;82;21056;-78
2021/09/23 07:52:53;;;;;;;4.03;3.62;;;;;;;8.87;89.08;99594.94;1710162;83;21019;-81
2021/09/23 07:55:20;;;;;;;5.50;3.72;;;;;;;8.88;89.25;99601.09;1714331;82;21043;-78
2021/09/23 07:57:49;;;;;;;3.75;3.12;;;;;;;8.85;89.01;99602.40;1712472;83;21062;-81
2021/09/23 08:00:18;;;;;;;5.53;3.42;;;;;;;8.82;89.23;99598.87;1695269;83;21263;-80
2021/09/23 08:02:44;;;;;;;4.17;3.47;;;;;;;8.80;89.49;99596.94;1722813;82;21015;-82
2021/09/23 08:05:15;;;;;;;4.65;3.55;;;;;;;8.79;89.74;99595.83;1710994;83;21003;-83
2021/09/23 08:07:44;;;;;;;4.10;3.00;;;;;;;8.72;89.66;99607.54;1694337;83;21543;-82
2021/09/23 08:10:11;;;;;;;4.17;3.45;;;;;;;8.63;89.18;99598.22;1705400;83;21189;-82
2021/09/23 08:12:38;;;;;;;3.65;3.33;;;;;;;8.55;89.56;99604.50;1693441;83;21165;-80
2021/09/23 08:15:08;;;;;;;3.52;2.90;;;;;;;8.50;89.77;99599.85;1709462;83;21558;-83
2021/09/23 08:17:37;;;;;;;3.90;3.27;;;;;;;8.48;89.97;99606.00;1713185;83;20989;-80
2021/09/23 08:20:24;;;;;;;3.45;3.17;;;;;;;8.46;90.14;99610.77;1712703;83;20937;-82
2021/09/23 08:22:52;;;;;;;4.37;3.10;;;;;;;8.46;90.37;99602.73;1713632;83;23080;-82
2021/09/23 08:25:19;;;;;;;5.03;3.35;;;;;;;8.45;90.38;99598.41;1699710;82;21526;-82
2021/09/23 08:27:45;;;;;;;2.67;2.47;;;;;;;8.45;90.45;99601.61;1697823;83;21060;-78
2021/09/23 08:30:14;;;;;;;2.72;2.40;;;;;;;8.45;90.55;99594.91;1713562;82;20983;-79
2021/09/23 08:32:42;;;;;;;2.87;2.67;;;;;;;8.47;90.71;99594.98;1719598;82;20992;-80
2021/09/23 08:35:11;;;;;;;3.10;2.83;;;;;;;8.50;90.59;99595.02;1719701;82;21008;-79
2021/09/23 08:37:38;;;;;;;3.33;3.02;;;;;;;8.50;90.18;99594.49;1714960;83;21658;-82
2021/09/23 08:40:10;;;;;;;2.90;2.60;;;;;;;8.53;89.99;99586.52;1690798;83;20962;-78
2021/09/23 08:42:37;;;;;;;2.60;2.40;;;;;;;8.55;89.90;99589.23;1690844;83;21157;-78
2021/09/23 08:45:06;;;;;;;3.02;2.83;;;;;;;8.60;89.39;99583.16;1680434;83;21054;-80
2021/09/23 08:47:33;;;;;;;2.45;1.95;;;;;;;8.65;88.89;99584.06;1717861;83;21986;-77
2021/09/23 08:50:03;;;;;;;4.30;2.47;;;;;;;8.70;88.04;99582.00;1691014;82;20936;-77
2021/09/23 08:52:29;;;;;;;3.08;2.15;;;;;;;8.73;87.71;99582.86;1663653;85;21548;-78
2021/09/23 08:54:56;;;;;;;2.75;2.55;;;;;;;8.80;87.65;99582.19;1663314;85;21051;-78
2021/09/23 08:57:25;;;;;;;3.02;2.25;;;;;;;8.90;87.34;99577.02;1685721;85;21007;-77
2021/09/23 08:59:53;;;;;;;2.72;2.45;;;;;;;9.02;86.83;99581.77;1685226;84;21148;-78
2021/09/23 09:02:28;;;;;;;2.25;2.00;;;;;;;9.10;86.51;99575.21;1672116;84;21545;-81
2021/09/23 09:05:04;;;;;;;4.30;3.37;;;;;;;9.20;86.29;99579.41;1710299;83;21505;-79
2021/09/23 09:07:32;;;;;;;2.40;2.20;;;;;;;9.28;85.92;99585.70;1716955;82;21057;-79
2021/09/23 09:10:19;;;;;;;1.87;1.77;;;;;;;9.33;85.47;99577.73;1708659;83;21028;-82
2021/09/23 09:12:47;;;;;;;3.37;2.37;;;;;;;9.40;85.11;99587.77;1668588;83;21003;-81
2021/09/23 09:15:17;;;;;;;2.45;2.20;;;;;;;9.41;84.41;99588.58;1689283;83;21535;-80
2021/09/23 09:17:42;;;;;;;4.50;2.15;;;;;;;9.45;84.17;99584.34;1709244;82;20988;-78
2021/09/23 09:20:11;;;;;;;2.58;2.37;;;;;;;9.46;84.13;99587.31;1715177;82;21066;-81
2021/09/23 09:22:41;;;;;;;2.12;1.95;;;;;;;9.44;84.29;99584.08;1703989;83;20899;-80
2021/09/23 09:25:12;;;;;;;2.08;1.87;;;;;;;9.42;83.93;99586.19;1718199;82;21101;-82
2021/09/23 09:27:43;;;;;;;4.70;2.15;;;;;;;9.38;83.89;99581.02;1699091;83;20990;-79
2021/09/23 09:30:24;;;;;;;2.20;2.00;;;;;;;9.39;83.67;99581.31;1725713;82;20988;-80
2021/09/23 09:32:57;;;;;;;3.45;2.08;;;;;;;9.41;83.65;99577.31;1717276;83;21043;-81
2021/09/23 09:35:34;;;;;;;2.35;2.15;;;;;;;9.46;83.64;99583.29;1714046;83;21011;-81
2021/09/23 09:38:04;;;;;;;1.72;1.62;;;;;;;9.46;83.43;99578.73;1709904;83;21585;-84
2021/09/23 09:40:36;;;;;;;1.92;1.70;;;;;;;9.44;82.81;99578.19;1686026;83;21494;-81
2021/09/23 09:43:06;;;;;;;3.60;1.87;;;;;;;9.41;82.63;99575.16;1727343;82;20997;-82
2021/09/23 09:45:35;;;;;;;2.70;1.30;;;;;;;9.38;82.83;99580.50;1727292;83;21440;-82
2021/09/23 09:48:02;;;;;;;2.10;1.90;;;;;;;9.38;83.02;99587.73;1715704;83;21013;-86
2021/09/23 09:50:37;;;;;;;2.30;1.92;;;;;;;9.36;83.13;99581.78;1696348;82;21776;-80
2021/09/23 09:53:12;;;;;;;3.77;1.75;;;;;;;9.31;83.37;99577.15;1700716;83;20974;-84
2021/09/23 09:55:43;;;;;;;2.25;1.90;;;;;;;9.29;83.88;99583.83;1707604;83;20961;-80
2021/09/23 09:58:13;;;;;;;2.95;2.00;;;;;;;9.27;83.68;99576.55;1709724;83;21060;-83
2021/09/23 10:00:41;;;;;;;3.80;2.20;;;;;;;9.26;84.14;99581.63;1713716;82;21024;-83
2021/09/23 10:03:08;;;;;;;3.12;2.40;;;;;;;9.31;84.55;99576.34;1716160;83;21855;-77
2021/09/23 10:05:35;;;;;;;1.82;1.72;;;;;;;9.39;84.67;99582.66;1713544;81;21023;-81
2021/09/23 10:08:05;;;;;;;1.95;1.85;;;;;;;9.47;84.80;99583.58;1705632;83;21028;-83
2021/09/23 10:10:33;;;;;;;1.98;1.70;;;;;;;9.57;84.03;99577.02;1709100;82;20983;-84
2021/09/23 10:13:03;;;;;;;2.00;1.90;;;;;;;9.62;83.70;99579.78;1713023;82;20907;-85
2021/09/23 10:15:31;;;;;;;2.30;2.00;;;;;;;9.68;83.39;99584.18;1700195;83;21030;-81
2021/09/23 10:18:03;;;;;;;2.50;2.30;;;;;;;9.66;82.73;99586.81;1708252;83;20974;-81
2021/09/23 10:20:33;;;;;;;2.65;2.02;;;;;;;9.65;82.29;99580.63;1702345;83;20955;-84
2021/09/23 10:23:01;;;;;;;1.72;1.62;;;;;;;9.63;81.30;99574.19;1710830;83;21139;-81
2021/09/23 10:25:32;;;;;;;1.80;1.70;;;;;;;9.66;80.84;99568.02;1698916;83;21396;-82
2021/09/23 10:28:01;;;;;;;1.57;1.42;;;;;;;9.70;80.48;99575.33;1705972;82;22252;-80
2021/09/23 10:30:40;;;;;;;1.90;1.70;;;;;;;9.73;80.11;99574.86;1713254;83;21008;-80
2021/09/23 10:33:08;;;;;;;1.55;1.45;;;;;;;9.77;80.05;99573.83;1727914;82;21041;-80
2021/09/23 10:35:35;;;;;;;1.70;1.60;;;;;;;9.78;79.78;99567.41;1723499;82;21039;-76
2021/09/23 10:38:08;;;;;;;4.03;2.05;;;;;;;9.79;79.85;99569.81;1717792;81;21083;-81
2021/09/23 10:40:38;;;;;;;2.77;1.37;;;;;;;9.79;80.06;99567.66;1688427;84;21089;-80
2021/09/23 10:43:14;;;;;;;1.65;1.55;;;;;;;9.77;80.39;99577.86;1694802;83;20994;-77
2021/09/23 10:45:44;;;;;;;1.45;1.35;;;;;;;9.79;80.03;99577.88;1701398;83;21566;-75
2021/09/23 10:48:12;;;;;;;1.65;1.32;;;;;;;9.83;79.53;99571.50;1721287;83;20912;-87
2021/09/23 10:50:41;;;;;;;2.02;1.55;;;;;;;9.87;79.16;99564.05;1717139;83;21524;-83
2021/09/23 10:53:10;;;;;;;1.40;1.30;;;;;;;9.93;78.79;99567.58;1728098;83;21083;-78
2021/09/23 10:55:39;;;;;;;1.50;1.47;;;;;;;9.96;78.24;99579.20;1727439;82;21023;-79
2021/09/23 10:58:07;;;;;;;1.45;1.35;;;;;;;9.98;78.04;99575.71;1717150;83;21031;-88
2021/09/23 11:00:36;;;;;;;3.52;3.22;;;;;;;9.94;77.64;99588.02;1727858;82;20992;-83
2021/09/23 11:03:07;;;;;;;2.98;2.05;;;;;;;9.83;78.23;99577.66;1727011;82;20939;-86
2021/09/23 11:05:34;;;;;;;3.37;2.10;;;;;;;9.74;79.40;99581.02;1727762;82;21071;-84
2021/09/23 11:08:14;;;;;;;1.42;1.32;;;;;;;9.64;80.34;99585.70;1717284;83;20980;-82
2021/09/23 11:10:44;;;;;;;1.77;1.60;;;;;;;9.58;81.28;99587.53;1727834;82;21478;-82
2021/09/23 11:13:14;;;;;;;1.67;1.57;;;;;;;9.53;81.81;99590.14;1714361;83;21032;-80
2021/09/23 11:15:43;;;;;;;1.57;1.47;;;;;;;9.51;82.38;99580.16;1727680;82;21541;-78
2021/09/23 11:18:10;;;;;;;1.82;1.60;;;;;;;9.48;82.98;99591.92;1703256;83;21157;-78
2021/09/23 11:20:44;;;;;;;1.05;1.00;;;;;;;9.41;82.62;99588.05;1727965;82;20941;-75
2021/09/23 11:23:08;;;;;;;1.67;1.57;;;;;;;9.36;82.72;99585.81;1727970;82;21099;-75
2021/09/23 11:25:46;;;;;;;1.30;1.20;;;;;;;9.37;82.78;99589.60;1727809;82;21603;-75
2021/09/23 11:28:11;;;;;;;1.37;1.27;;;;;;;9.41;82.75;99580.52;1717937;83;21079;-75
2021/09/23 11:30:38;;;;;;;1.40;1.30;;;;;;;9.44;82.87;99582.22;1715266;83;21548;-76
2021/09/23 11:33:09;;;;;;;1.40;1.30;;;;;;;9.49;83.26;99582.30;1716035;83;20920;-76
2021/09/23 11:35:41;;;;;;;1.90;1.70;;;;;;;9.56;83.33;99584.27;1727992;83;21012;-75
2021/09/23 11:38:09;;;;;;;1.00;1.00;;;;;;;9.58;83.10;99570.60;1717236;83;21569;-74
2021/09/23 11:40:38;;;;;;;3.17;2.00;;;;;;;9.56;82.89;99582.92;1727699;83;21080;-76
2021/09/23 11:43:07;;;;;;;2.30;1.75;;;;;;;9.54;82.93;99574.84;1727809;82;21113;-77
2021/09/23 11:45:35;;;;;;;1.70;1.32;;;;;;;9.57;83.20;99577.02;1728474;83;21689;-82
2021/09/23 11:48:16;;;;;;;1.77;1.50;;;;;;;9.60;82.98;99577.34;1728170;83;33458;-81
2021/09/23 11:50:54;;;;;;;1.95;1.67;;;;;;;9.60;82.64;99578.68;1707822;82;21607;-75